Trine Charlotte — LMRY — position and weather

sailwx.info

Track history (hours):
 
Tides and Currents Weather Stations Pressure Air Temp Water Temp Dewpoint Dewpoint Depression Visibility Wind Speed Wind Dir Waves Ship Positions

Trine Charlotte

Last reported at 2017-Jan-09 20:06 UTC. Time now 2017-Jan-18 20:16 UTC.
Position N 69°19' E 017°59'.
Warning: this ship's position is 9 days out of date.

Length 66 m; draft 5 m.

Type: Wing in ground effect craft. MMSI: 257233000.

Date/timePositionNaut miles runAvg speedWind from/ knotsBaromVisibWave heightAir tempDewpointWater temp
2017-Jan-09 20:06N 69°19' E 017°59'5 8.7
2017-Jan-09 19:33N 69°14' E 017°58'7 6.6
2017-Jan-09 18:33N 69°09' E 017°48'9 9.0
2017-Jan-09 17:33N 69°05' E 017°25'18 8.9
2017-Jan-09 15:30N 68°50' E 016°55'89 5.2
2017-Jan-08 22:20N 67°37' E 014°38'5 0.2
2017-Jan-07 18:25N 67°42' E 014°31'12 0.3
2017-Jan-05 19:08N 67°30' E 014°29'5 9.2
2017-Jan-05 18:33N 67°25' E 014°27'8 8.3
2017-Jan-05 17:33N 67°17' E 014°21'1 0.6
2017-Jan-05 16:33N 67°16' E 014°21'0 0.0
2017-Jan-05 15:33N 67°16' E 014°21'0 0.0
2017-Jan-05 14:33N 67°16' E 014°21'0 0.0
2017-Jan-05 13:33N 67°16' E 014°21'4 4.4
2017-Jan-05 12:33N 67°14' E 014°12'9 9.0
2017-Jan-05 11:33N 67°06' E 013°58'9 9.0
2017-Jan-05 10:33N 67°00' E 013°41'8 8.2
2017-Jan-05 09:33N 66°54' E 013°27'12 8.8
2017-Jan-05 08:11N 66°44' E 013°12'14 8.6
2017-Jan-05 06:32N 66°31' E 012°59'9 9.3
2017-Jan-05 05:32N 66°21' E 012°58'10 9.2
2017-Jan-05 04:29N 66°12' E 012°52'7 7.9
2017-Jan-05 03:32N 66°06' E 012°42'63 8.6
2017-Jan-04 20:17N 65°07' E 011°49'6 8.6
2017-Jan-04 19:33N 65°02' E 011°42'9 8.6
2017-Jan-04 18:33N 64°56' E 011°26'8 8.4
2017-Jan-04 17:33N 64°50' E 011°12'8 8.0
2017-Jan-04 16:33N 64°43' E 011°06'10 8.6
2017-Jan-04 15:21N 64°34' E 011°19'3 0.5
2017-Jan-04 09:27N 64°37' E 011°16'7 7.7
2017-Jan-04 08:33N 64°42' E 011°06'8 8.2
2017-Jan-04 07:33N 64°50' E 011°11'10 9.6
2017-Jan-04 06:33N 64°56' E 011°28'9 9.2
2017-Jan-04 05:33N 65°03' E 011°43'9 9.3
2017-Jan-04 04:33N 65°11' E 011°52'9 9.2
2017-Jan-04 03:33N 65°20' E 012°01'47 8.8
2017-Jan-03 22:14N 66°04' E 012°38'6 8.3
2017-Jan-03 21:32N 66°10' E 012°39'8 8.1
2017-Jan-03 20:33N 66°18' E 012°39'7 7.4
2017-Jan-03 19:33N 66°25' E 012°40'8 7.6
2017-Jan-03 18:33N 66°31' E 012°28'8 7.6
2017-Jan-03 17:33N 66°39' E 012°24'3 0.1
2017-Jan-02 10:33N 66°36' E 012°24'9 9.1
2017-Jan-02 09:33N 66°27' E 012°33'9 9.3
2017-Jan-02 08:33N 66°21' E 012°51'80 7.2
2017-Jan-01 21:27N 65°06' E 011°48'7 7.4
2017-Jan-01 20:33N 65°01' E 011°39'8 7.6
2017-Jan-01 19:33N 64°56' E 011°25'7 7.5
2017-Jan-01 18:33N 64°51' E 011°12'61 2.0
2016-Dec-31 11:28N 63°59' E 009°55'8 8.6
2016-Dec-31 10:33N 63°53' E 009°44'9 9.0
2016-Dec-31 09:33N 63°46' E 009°32'8 7.9
2016-Dec-31 08:33N 63°38' E 009°29'9 9.4
2016-Dec-31 07:33N 63°32' E 009°13'3110.3
2016-Dec-31 04:33N 63°17' E 008°12'1010.1
2016-Dec-31 03:33N 63°12' E 007°53'9 9.5
2016-Dec-31 02:33N 63°07' E 007°35'8 8.3
2016-Dec-31 01:33N 63°03' E 007°18'9 8.7
2016-Dec-31 00:32N 63°00' E 007°00'9 8.1
2016-Dec-30 23:24N 62°54' E 006°45'8 9.1
2016-Dec-30 22:33N 62°47' E 006°36'  
Track history (hours):
 
Tides and Currents Weather Stations Pressure Air Temp Water Temp Dewpoint Dewpoint Depression Visibility Wind Speed Wind Dir Waves Ship Positions

Trine Charlotte

Last reported at 2017-Jan-09 20:06 UTC. Time now 2017-Jan-18 20:16 UTC.
Position N 69°19' E 017°59'.
Warning: this ship's position is 9 days out of date.

Length 66 m; draft 5 m.

Type: Wing in ground effect craft. MMSI: 257233000.

Date/timePositionNaut miles runAvg speedWind from/ knotsBaromVisibWave heightAir tempDewpointWater temp
2017-Jan-09 20:06N 69°19' E 017°59'5 8.7
2017-Jan-09 19:33N 69°14' E 017°58'7 6.6
2017-Jan-09 18:33N 69°09' E 017°48'9 9.0
2017-Jan-09 17:33N 69°05' E 017°25'18 8.9
2017-Jan-09 15:30N 68°50' E 016°55'89 5.2
2017-Jan-08 22:20N 67°37' E 014°38'5 0.2
2017-Jan-07 18:25N 67°42' E 014°31'12 0.3
2017-Jan-05 19:08N 67°30' E 014°29'5 9.2
2017-Jan-05 18:33N 67°25' E 014°27'8 8.3
2017-Jan-05 17:33N 67°17' E 014°21'1 0.6
2017-Jan-05 16:33N 67°16' E 014°21'0 0.0
2017-Jan-05 15:33N 67°16' E 014°21'0 0.0
2017-Jan-05 14:33N 67°16' E 014°21'0 0.0
2017-Jan-05 13:33N 67°16' E 014°21'4 4.4
2017-Jan-05 12:33N 67°14' E 014°12'9 9.0
2017-Jan-05 11:33N 67°06' E 013°58'9 9.0
2017-Jan-05 10:33N 67°00' E 013°41'8 8.2
2017-Jan-05 09:33N 66°54' E 013°27'12 8.8
2017-Jan-05 08:11N 66°44' E 013°12'14 8.6
2017-Jan-05 06:32N 66°31' E 012°59'9 9.3
2017-Jan-05 05:32N 66°21' E 012°58'10 9.2
2017-Jan-05 04:29N 66°12' E 012°52'7 7.9
2017-Jan-05 03:32N 66°06' E 012°42'63 8.6
2017-Jan-04 20:17N 65°07' E 011°49'6 8.6
2017-Jan-04 19:33N 65°02' E 011°42'9 8.6
2017-Jan-04 18:33N 64°56' E 011°26'8 8.4
2017-Jan-04 17:33N 64°50' E 011°12'8 8.0
2017-Jan-04 16:33N 64°43' E 011°06'10 8.6
2017-Jan-04 15:21N 64°34' E 011°19'3 0.5
2017-Jan-04 09:27N 64°37' E 011°16'7 7.7
2017-Jan-04 08:33N 64°42' E 011°06'8 8.2
2017-Jan-04 07:33N 64°50' E 011°11'10 9.6
2017-Jan-04 06:33N 64°56' E 011°28'9 9.2
2017-Jan-04 05:33N 65°03' E 011°43'9 9.3
2017-Jan-04 04:33N 65°11' E 011°52'9 9.2
2017-Jan-04 03:33N 65°20' E 012°01'47 8.8
2017-Jan-03 22:14N 66°04' E 012°38'6 8.3
2017-Jan-03 21:32N 66°10' E 012°39'8 8.1
2017-Jan-03 20:33N 66°18' E 012°39'7 7.4
2017-Jan-03 19:33N 66°25' E 012°40'8 7.6
2017-Jan-03 18:33N 66°31' E 012°28'8 7.6
2017-Jan-03 17:33N 66°39' E 012°24'3 0.1
2017-Jan-02 10:33N 66°36' E 012°24'9 9.1
2017-Jan-02 09:33N 66°27' E 012°33'9 9.3
2017-Jan-02 08:33N 66°21' E 012°51'80 7.2
2017-Jan-01 21:27N 65°06' E 011°48'7 7.4
2017-Jan-01 20:33N 65°01' E 011°39'8 7.6
2017-Jan-01 19:33N 64°56' E 011°25'7 7.5
2017-Jan-01 18:33N 64°51' E 011°12'61 2.0
2016-Dec-31 11:28N 63°59' E 009°55'8 8.6
2016-Dec-31 10:33N 63°53' E 009°44'9 9.0
2016-Dec-31 09:33N 63°46' E 009°32'8 7.9
2016-Dec-31 08:33N 63°38' E 009°29'9 9.4
2016-Dec-31 07:33N 63°32' E 009°13'3110.3
2016-Dec-31 04:33N 63°17' E 008°12'1010.1
2016-Dec-31 03:33N 63°12' E 007°53'9 9.5
2016-Dec-31 02:33N 63°07' E 007°35'8 8.3
2016-Dec-31 01:33N 63°03' E 007°18'9 8.7
2016-Dec-31 00:32N 63°00' E 007°00'9 8.1
2016-Dec-30 23:24N 62°54' E 006°45'8 9.1
2016-Dec-30 22:33N 62°47' E 006°36'  

Dump ship's entire track history